Time;durP1;ratioP1;P1;durP2;ratioP2;P2;SDS_P1;SDS_P2;PMS_P1;PMS_P2;Temp;Humidity;BMP_temperature;BMP_pressure;BME280_temperature;BME280_humidity;BME280_pressure;Samples;Min_cycle;Max_cycle;Signal;HPM_P1;HPM_P2
2022/09/16 00:00:31;;;;;;;9.50;1.35;;;;;;;;;;5093782;28;20023;-81
2022/09/16 00:02:57;;;;;;;7.13;1.17;;;;;;;;;;5075900;28;20381;-81
2022/09/16 00:05:24;;;;;;;5.20;1.60;;;;;;;;;;5093840;28;20020;-80
2022/09/16 00:07:50;;;;;;;4.35;1.10;;;;;;;;;;5093444;28;20028;-80
2022/09/16 00:10:17;;;;;;;6.28;1.38;;;;;;;;;;5093815;28;20016;-80
2022/09/16 00:12:43;;;;;;;6.78;1.20;;;;;;;;;;5075397;28;20016;-80
2022/09/16 00:15:09;;;;;;;6.88;1.13;;;;;;;;;;5093462;28;20036;-80
2022/09/16 00:17:36;;;;;;;4.22;1.10;;;;;;;;;;5093416;28;20327;-80
2022/09/16 00:20:03;;;;;;;8.00;1.52;;;;;;;;;;5075490;28;20054;-80
2022/09/16 00:22:29;;;;;;;4.47;1.30;;;;;;;;;;5093398;28;20335;-80
2022/09/16 00:24:55;;;;;;;5.10;1.30;;;;;;;;;;5093408;28;20031;-80
2022/09/16 00:27:21;;;;;;;4.72;1.20;;;;;;;;;;5074819;28;20024;-80
2022/09/16 00:29:47;;;;;;;12.15;1.63;;;;;;;;;;5093040;28;20030;-80
2022/09/16 00:32:13;;;;;;;4.25;1.20;;;;;;;;;;5093493;28;20027;-80
2022/09/16 00:34:39;;;;;;;8.63;1.50;;;;;;;;;;5074914;28;20024;-80
2022/09/16 00:37:08;;;;;;;5.95;1.30;;;;;;;;;;5093128;28;20028;-80
2022/09/16 00:39:35;;;;;;;7.68;1.60;;;;;;;;;;5074617;28;20069;-80
2022/09/16 00:42:02;;;;;;;6.55;1.50;;;;;;;;;;5074105;28;20347;-80
2022/09/16 00:44:47;;;;;;;11.45;2.05;;;;;;;;;;5074544;28;20024;-80
2022/09/16 00:47:16;;;;;;;6.40;1.65;;;;;;;;;;5074417;28;20074;-80
2022/09/16 00:49:43;;;;;;;9.35;2.53;;;;;;;;;;5092849;28;20031;-80
2022/09/16 00:52:09;;;;;;;6.18;1.58;;;;;;;;;;5074651;28;20020;-80
2022/09/16 00:54:36;;;;;;;5.95;1.65;;;;;;;;;;5092875;28;20032;-80
2022/09/16 00:57:05;;;;;;;9.32;1.60;;;;;;;;;;5074564;28;20109;-80
2022/09/16 00:59:32;;;;;;;6.15;1.60;;;;;;;;;;5091013;28;20381;-80
2022/09/16 01:02:00;;;;;;;5.20;1.35;;;;;;;;;;5094917;28;20039;-80
2022/09/16 01:04:29;;;;;;;12.30;2.55;;;;;;;;;;5113102;28;20477;-81
2022/09/16 01:06:56;;;;;;;9.70;1.88;;;;;;;;;;5112916;28;20335;-80
2022/09/16 01:09:22;;;;;;;12.15;2.03;;;;;;;;;;5112935;28;20024;-80
2022/09/16 01:11:49;;;;;;;7.72;1.90;;;;;;;;;;5112712;28;20030;-80
2022/09/16 01:17:00;;;;;;;5.47;1.33;;;;;;;;;;5112721;28;20039;-80
2022/09/16 01:19:45;;;;;;;13.68;1.70;;;;;;;;;;5112812;28;20024;-80
2022/09/16 01:22:30;;;;;;;10.43;1.77;;;;;;;;;;5107255;28;20028;-80
2022/09/16 01:25:17;;;;;;;6.38;1.70;;;;;;;;;;5094246;28;20389;-80
2022/09/16 01:27:46;;;;;;;4.93;1.55;;;;;;;;;;5094005;28;20023;-80
2022/09/16 01:30:12;;;;;;;5.55;1.45;;;;;;;;;;5112861;28;20309;-80
2022/09/16 01:32:57;;;;;;;7.55;1.60;;;;;;;;;;5112372;28;20094;-80
2022/09/16 01:35:39;;;;;;;6.20;2.03;;;;;;;;;;5112616;28;20031;-81
2022/09/16 01:38:10;;;;;;;8.02;1.60;;;;;;;;;;5112501;28;20019;-80
2022/09/16 01:40:55;;;;;;;5.18;1.50;;;;;;;;;;5093900;28;20032;-81
2022/09/16 01:43:30;;;;;;;9.90;1.90;;;;;;;;;;5112718;28;20019;-81
2022/09/16 01:46:03;;;;;;;3.30;1.55;;;;;;;;;;5112030;28;20030;-80
2022/09/16 01:48:38;;;;;;;8.18;1.58;;;;;;;;;;5094020;28;20099;-80
2022/09/16 01:51:22;;;;;;;6.55;1.55;;;;;;;;;;5093816;28;20028;-80
2022/09/16 01:54:02;;;;;;;7.97;1.90;;;;;;;;;;5095143;28;20136;-80
2022/09/16 01:56:47;;;;;;;12.25;2.35;;;;;;;;;;5116503;28;20031;-80
2022/09/16 01:59:18;;;;;;;9.88;2.08;;;;;;;;;;5116096;28;20034;-80
2022/09/16 02:02:00;;;;;;;6.72;1.80;;;;;;;;;;5097800;28;20023;-80
2022/09/16 02:04:29;;;;;;;8.65;1.90;;;;;;;;;;5116398;28;20452;-80
2022/09/16 02:06:56;;;;;;;6.80;1.88;;;;;;;;;;5097547;28;20115;-80
2022/09/16 02:09:26;;;;;;;13.82;2.15;;;;;;;;;;5097755;28;20381;-80
2022/09/16 02:11:54;;;;;;;9.70;2.00;;;;;;;;;;5116154;28;20357;-79
2022/09/16 02:14:26;;;;;;;8.05;2.10;;;;;;;;;;5097365;28;20048;-80
2022/09/16 02:17:00;;;;;;;5.97;2.75;;;;;;;;;;5116204;28;20423;-80
2022/09/16 02:19:29;;;;;;;8.45;1.77;;;;;;;;;;5115995;28;20047;-80
2022/09/16 02:21:56;;;;;;;3.88;1.70;;;;;;;;;;5115852;28;20044;-80
2022/09/16 02:24:23;;;;;;;7.70;1.83;;;;;;;;;;5097405;28;20157;-80
2022/09/16 02:26:56;;;;;;;5.80;1.60;;;;;;;;;;5097345;28;20023;-80
2022/09/16 02:29:25;;;;;;;8.38;1.38;;;;;;;;;;5115746;28;20028;-80
2022/09/16 02:31:52;;;;;;;9.80;2.00;;;;;;;;;;5097072;28;20072;-80
2022/09/16 02:34:20;;;;;;;4.50;1.50;;;;;;;;;;5115751;28;20020;-80
2022/09/16 02:36:49;;;;;;;7.13;1.67;;;;;;;;;;5115574;28;20408;-80
2022/09/16 02:39:17;;;;;;;8.57;2.10;;;;;;;;;;5096881;28;20122;-80
2022/09/16 02:41:43;;;;;;;6.88;1.67;;;;;;;;;;5115542;28;20046;-80
2022/09/16 02:44:10;;;;;;;8.80;1.83;;;;;;;;;;5115460;28;20024;-80
2022/09/16 02:46:36;;;;;;;5.65;1.63;;;;;;;;;;5115647;28;20103;-80
2022/09/16 02:49:13;;;;;;;5.43;1.73;;;;;;;;;;5115367;28;20092;-80
2022/09/16 02:51:42;;;;;;;7.55;1.80;;;;;;;;;;5097049;28;20030;-80
2022/09/16 02:54:19;;;;;;;6.93;1.88;;;;;;;;;;5096948;28;20470;-80
2022/09/16 02:56:46;;;;;;;5.57;1.48;;;;;;;;;;5115072;28;20023;-80
2022/09/16 02:59:12;;;;;;;4.20;1.52;;;;;;;;;;5115205;28;20055;-80
2022/09/16 03:01:46;;;;;;;7.78;1.88;;;;;;;;;;5096944;28;20112;-80
2022/09/16 03:04:13;;;;;;;9.27;1.92;;;;;;;;;;5096407;28;20662;-80
2022/09/16 03:06:40;;;;;;;8.45;2.60;;;;;;;;;;5096768;28;20107;-80
2022/09/16 03:09:08;;;;;;;9.00;1.90;;;;;;;;;;5114999;28;20030;-80
2022/09/16 03:11:52;;;;;;;5.25;1.60;;;;;;;;;;5115006;28;20027;-80
2022/09/16 03:14:57;;;;;;;9.32;1.45;;;;;;;;;;5096472;28;20058;-80
2022/09/16 03:17:29;;;;;;;11.45;1.67;;;;;;;;;;4995780;28;20037;-80
2022/09/16 03:20:13;;;;;;;8.02;1.35;;;;;;;;;;4996291;28;20045;-80
2022/09/16 03:23:02;;;;;;;8.02;1.83;;;;;;;;;;5072129;28;20389;-80
2022/09/16 03:25:38;;;;;;;4.72;1.10;;;;;;;;;;5050374;28;20043;-80
2022/09/16 03:28:16;;;;;;;7.07;1.85;;;;;;;;;;5114689;28;20381;-80
2022/09/16 03:30:50;;;;;;;8.15;1.90;;;;;;;;;;5114661;28;20023;-81
2022/09/16 03:33:24;;;;;;;8.90;1.75;;;;;;;;;;5114875;28;20027;-80
2022/09/16 03:35:50;;;;;;;8.60;1.45;;;;;;;;;;5114621;28;20031;-80
2022/09/16 03:38:16;;;;;;;6.03;1.33;;;;;;;;;;5114629;28;20031;-80
2022/09/16 03:40:43;;;;;;;5.80;1.70;;;;;;;;;;5114938;28;20440;-80
2022/09/16 03:43:09;;;;;;;6.28;1.20;;;;;;;;;;5114580;28;20042;-80
2022/09/16 03:45:35;;;;;;;16.17;1.65;;;;;;;;;;5114617;28;20405;-80
2022/09/16 03:48:01;;;;;;;4.85;1.60;;;;;;;;;;5095931;28;20385;-80
2022/09/16 03:50:27;;;;;;;6.82;1.73;;;;;;;;;;5114469;28;20036;-81
2022/09/16 03:52:53;;;;;;;7.28;1.50;;;;;;;;;;5114480;28;20036;-80
2022/09/16 03:55:20;;;;;;;8.30;1.67;;;;;;;;;;5114228;28;20020;-80
2022/09/16 03:57:46;;;;;;;5.88;1.52;;;;;;;;;;5114439;28;20022;-80
2022/09/16 04:00:14;;;;;;;8.38;1.88;;;;;;;;;;5095908;28;20031;-81
2022/09/16 04:02:40;;;;;;;6.68;1.58;;;;;;;;;;5113984;28;20019;-81
2022/09/16 04:05:07;;;;;;;12.70;3.28;;;;;;;;;;5114379;28;20024;-81
2022/09/16 04:07:33;;;;;;;6.60;1.77;;;;;;;;;;5095733;28;20496;-80
2022/09/16 04:10:00;;;;;;;5.28;1.40;;;;;;;;;;5114001;28;20061;-80
2022/09/16 04:12:26;;;;;;;8.27;1.30;;;;;;;;;;5113955;28;20415;-80
2022/09/16 04:14:52;;;;;;;9.63;1.50;;;;;;;;;;5113787;28;20079;-80
2022/09/16 04:17:19;;;;;;;5.72;1.27;;;;;;;;;;5094717;28;20355;-80
2022/09/16 04:19:45;;;;;;;11.52;3.28;;;;;;;;;;5113803;28;20517;-80
2022/09/16 04:22:11;;;;;;;15.68;1.50;;;;;;;;;;5095405;28;20024;-81
2022/09/16 04:24:37;;;;;;;8.57;1.60;;;;;;;;;;5113726;28;20529;-80
2022/09/16 04:27:03;;;;;;;7.85;1.40;;;;;;;;;;5095244;28;20050;-80
2022/09/16 04:29:31;;;;;;;8.00;1.70;;;;;;;;;;5095420;28;20110;-80
2022/09/16 04:31:57;;;;;;;8.15;2.13;;;;;;;;;;5113773;28;20034;-80
2022/09/16 04:34:23;;;;;;;4.07;1.17;;;;;;;;;;5095118;28;20163;-80
2022/09/16 04:36:49;;;;;;;8.00;1.60;;;;;;;;;;5095494;28;20027;-81
2022/09/16 04:39:15;;;;;;;7.65;1.50;;;;;;;;;;5113364;28;20108;-81
2022/09/16 04:41:41;;;;;;;8.32;1.67;;;;;;;;;;5095074;28;20023;-81
2022/09/16 04:44:07;;;;;;;11.07;1.67;;;;;;;;;;5113631;28;20031;-80
2022/09/16 04:46:33;;;;;;;5.32;1.67;;;;;;;;;;5095841;28;20031;-81
2022/09/16 04:49:00;;;;;;;7.03;1.75;;;;;;;;;;5092980;28;20114;-80
2022/09/16 04:51:27;;;;;;;6.03;1.88;;;;;;;;;;5074688;28;20119;-81
2022/09/16 04:53:53;;;;;;;7.10;1.50;;;;;;;;;;5092747;28;20024;-80
2022/09/16 04:56:21;;;;;;;10.52;1.63;;;;;;;;;;5092529;28;20154;-80
2022/09/16 04:58:48;;;;;;;5.00;1.52;;;;;;;;;;5094511;28;20024;-80
2022/09/16 05:01:18;;;;;;;7.47;1.35;;;;;;;;;;5112945;28;20488;-81
2022/09/16 05:03:46;;;;;;;8.30;1.83;;;;;;;;;;5113032;28;20116;-80
2022/09/16 05:06:13;;;;;;;6.88;1.60;;;;;;;;;;5094696;28;20077;-81
2022/09/16 05:08:40;;;;;;;8.00;1.95;;;;;;;;;;5094460;28;20023;-80
2022/09/16 05:11:06;;;;;;;8.13;1.80;;;;;;;;;;5113026;28;20044;-80
2022/09/16 05:13:32;;;;;;;7.30;2.45;;;;;;;;;;5112645;28;20332;-80
2022/09/16 05:16:06;;;;;;;11.55;1.92;;;;;;;;;;5113007;28;20077;-80
2022/09/16 05:18:32;;;;;;;8.52;2.38;;;;;;;;;;5113185;28;20111;-81
2022/09/16 05:20:59;;;;;;;8.95;1.90;;;;;;;;;;5113201;28;20024;-80
2022/09/16 05:23:25;;;;;;;8.63;2.25;;;;;;;;;;5112495;28;20089;-80
2022/09/16 05:25:51;;;;;;;9.00;2.60;;;;;;;;;;5112638;28;20023;-80
2022/09/16 05:28:17;;;;;;;8.50;1.70;;;;;;;;;;5112673;28;20028;-80
2022/09/16 05:30:43;;;;;;;6.57;2.00;;;;;;;;;;5094300;28;20020;-80
2022/09/16 05:33:09;;;;;;;4.97;1.90;;;;;;;;;;5112728;28;20347;-81
2022/09/16 05:35:35;;;;;;;12.27;1.90;;;;;;;;;;5112684;28;20034;-80
2022/09/16 05:38:01;;;;;;;7.55;1.77;;;;;;;;;;5094300;28;20134;-80
2022/09/16 05:40:27;;;;;;;5.63;1.98;;;;;;;;;;5112804;28;20338;-80
2022/09/16 05:42:54;;;;;;;9.70;1.88;;;;;;;;;;5094152;28;20023;-80
2022/09/16 05:45:20;;;;;;;10.40;2.20;;;;;;;;;;5094290;28;20085;-80
2022/09/16 05:47:50;;;;;;;12.15;2.20;;;;;;;;;;5112414;28;20053;-80
2022/09/16 05:50:16;;;;;;;10.30;1.92;;;;;;;;;;5112342;28;20493;-80
2022/09/16 05:52:42;;;;;;;6.55;1.70;;;;;;;;;;5112242;28;20044;-80
2022/09/16 05:55:08;;;;;;;10.73;1.83;;;;;;;;;;5112473;28;20032;-80
2022/09/16 05:57:34;;;;;;;5.45;1.80;;;;;;;;;;5112365;28;20102;-80
2022/09/16 06:00:00;;;;;;;8.38;2.00;;;;;;;;;;5112265;28;20421;-81
2022/09/16 06:02:26;;;;;;;6.80;1.60;;;;;;;;;;5093948;28;20126;-81
2022/09/16 06:04:52;;;;;;;4.15;1.67;;;;;;;;;;5093780;28;20496;-80
2022/09/16 06:07:18;;;;;;;5.95;1.60;;;;;;;;;;5094002;28;20027;-80
2022/09/16 06:09:44;;;;;;;5.68;1.33;;;;;;;;;;5112211;28;20024;-80
2022/09/16 06:12:10;;;;;;;4.47;1.50;;;;;;;;;;5096972;28;20097;-80
2022/09/16 06:14:36;;;;;;;5.60;1.50;;;;;;;;;;5073348;28;20176;-80
2022/09/16 06:17:03;;;;;;;4.25;1.33;;;;;;;;;;5073468;28;20412;-81
2022/09/16 06:19:29;;;;;;;6.45;1.50;;;;;;;;;;5091627;28;20142;-80
2022/09/16 06:21:55;;;;;;;4.57;1.60;;;;;;;;;;5099025;28;20057;-80
2022/09/16 06:24:21;;;;;;;6.30;1.30;;;;;;;;;;5114056;28;20086;-80
2022/09/16 06:26:48;;;;;;;4.22;1.50;;;;;;;;;;5112009;28;20023;-81
2022/09/16 06:29:14;;;;;;;10.02;1.88;;;;;;;;;;5123281;28;20023;-80
2022/09/16 06:31:41;;;;;;;6.03;1.35;;;;;;;;;;5106331;28;20474;-81
2022/09/16 06:34:08;;;;;;;10.30;1.58;;;;;;;;;;5124337;28;20038;-80
2022/09/16 06:36:35;;;;;;;8.57;1.80;;;;;;;;;;5112432;28;20019;-79
2022/09/16 06:39:01;;;;;;;3.72;1.25;;;;;;;;;;5129946;27;20027;-81
2022/09/16 06:41:27;;;;;;;4.25;1.25;;;;;;;;;;5131143;27;20023;-81
2022/09/16 06:43:54;;;;;;;5.05;1.15;;;;;;;;;;5109953;28;20430;-81
2022/09/16 06:46:21;;;;;;;9.10;1.27;;;;;;;;;;5116041;27;20026;-81
2022/09/16 06:48:49;;;;;;;9.52;1.30;;;;;;;;;;5098950;28;20335;-81
2022/09/16 06:51:17;;;;;;;7.53;1.27;;;;;;;;;;5097363;27;20024;-81
2022/09/16 06:53:43;;;;;;;5.07;1.13;;;;;;;;;;5095489;28;20028;-81
2022/09/16 06:56:11;;;;;;;7.97;1.17;;;;;;;;;;5123315;27;20384;-81
2022/09/16 06:58:38;;;;;;;6.57;1.58;;;;;;;;;;5126863;27;20023;-81
2022/09/16 07:01:08;;;;;;;9.10;2.05;;;;;;;;;;5130853;27;20037;-81
2022/09/16 07:03:37;;;;;;;6.35;0.80;;;;;;;;;;5135426;27;20076;-81
2022/09/16 07:06:03;;;;;;;5.57;0.80;;;;;;;;;;5123141;27;20023;-81
2022/09/16 07:08:30;;;;;;;8.00;1.10;;;;;;;;;;5125948;27;20023;-81
2022/09/16 07:10:57;;;;;;;8.95;0.80;;;;;;;;;;5120714;27;20019;-81
2022/09/16 07:13:23;;;;;;;3.38;0.80;;;;;;;;;;5109849;28;20027;-81
2022/09/16 07:15:49;;;;;;;11.48;1.15;;;;;;;;;;5129544;27;20023;-81
2022/09/16 07:18:15;;;;;;;10.25;1.58;;;;;;;;;;5117596;27;20020;-81
2022/09/16 07:20:42;;;;;;;8.82;0.80;;;;;;;;;;5092775;28;20474;-81
2022/09/16 07:23:08;;;;;;;6.68;0.90;;;;;;;;;;5106534;28;20058;-81
2022/09/16 07:25:34;;;;;;;3.85;0.75;;;;;;;;;;5127767;27;20059;-82
2022/09/16 07:28:02;;;;;;;8.18;1.30;;;;;;;;;;5133950;27;20057;-80
2022/09/16 07:30:29;;;;;;;7.68;1.02;;;;;;;;;;5134550;27;20341;-81
2022/09/16 07:32:55;;;;;;;7.60;0.95;;;;;;;;;;5134424;27;20015;-81
2022/09/16 07:35:21;;;;;;;5.55;1.08;;;;;;;;;;5135101;27;20016;-82
2022/09/16 07:37:47;;;;;;;11.40;0.82;;;;;;;;;;5134064;27;20019;-82
2022/09/16 07:40:13;;;;;;;11.93;1.15;;;;;;;;;;5134318;27;20441;-82
2022/09/16 07:42:41;;;;;;;4.57;0.70;;;;;;;;;;5135456;27;20031;-82
2022/09/16 07:45:07;;;;;;;6.78;1.02;;;;;;;;;;5135304;27;20339;-82
2022/09/16 07:47:33;;;;;;;10.90;0.82;;;;;;;;;;5135374;27;20426;-82
2022/09/16 07:49:59;;;;;;;3.47;0.88;;;;;;;;;;5134035;27;20375;-82
2022/09/16 07:52:28;;;;;;;4.78;1.05;;;;;;;;;;5130568;27;20197;-81
2022/09/16 07:54:57;;;;;;;6.47;0.90;;;;;;;;;;5128413;27;20024;-82
2022/09/16 07:57:23;;;;;;;16.35;1.10;;;;;;;;;;5133777;27;20023;-83
2022/09/16 07:59:49;;;;;;;5.20;0.80;;;;;;;;;;5122796;27;20120;-83
2022/09/16 08:02:16;;;;;;;4.30;0.70;;;;;;;;;;5113021;28;20100;-82
2022/09/16 08:04:42;;;;;;;8.98;1.30;;;;;;;;;;5114274;28;20119;-82
2022/09/16 08:07:08;;;;;;;5.85;0.80;;;;;;;;;;5114304;28;20020;-82
2022/09/16 08:09:36;;;;;;;2.95;0.90;;;;;;;;;;5114820;28;20031;-82
2022/09/16 08:12:03;;;;;;;4.82;0.82;;;;;;;;;;5103048;28;20081;-83
2022/09/16 08:14:29;;;;;;;5.55;0.93;;;;;;;;;;5093772;28;20040;-83
2022/09/16 08:16:56;;;;;;;4.68;0.80;;;;;;;;;;5093961;28;20016;-83
2022/09/16 08:19:22;;;;;;;3.92;0.60;;;;;;;;;;5093764;28;20044;-83
2022/09/16 08:21:48;;;;;;;5.30;1.30;;;;;;;;;;5093942;28;20055;-82
2022/09/16 08:24:15;;;;;;;5.30;1.08;;;;;;;;;;5093793;28;20032;-82
2022/09/16 08:26:41;;;;;;;3.47;0.70;;;;;;;;;;5093818;28;20408;-82
2022/09/16 08:29:07;;;;;;;5.18;0.63;;;;;;;;;;5092336;28;20032;-82
2022/09/16 08:31:33;;;;;;;6.68;0.75;;;;;;;;;;5093514;28;20089;-82
2022/09/16 08:33:59;;;;;;;5.63;0.70;;;;;;;;;;5092081;28;20428;-83
2022/09/16 08:36:25;;;;;;;6.55;0.63;;;;;;;;;;5093339;28;20028;-83
2022/09/16 08:38:53;;;;;;;5.78;0.47;;;;;;;;;;5093384;28;20024;-83
2022/09/16 08:41:19;;;;;;;3.67;0.60;;;;;;;;;;5092047;28;20047;-82
2022/09/16 08:43:50;;;;;;;2.63;0.40;;;;;;;;;;5093589;28;20327;-82
2022/09/16 08:46:22;;;;;;;5.70;0.70;;;;;;;;;;5108240;28;20365;-82
2022/09/16 08:48:52;;;;;;;5.95;0.70;;;;;;;;;;5112297;28;20031;-82
2022/09/16 08:51:19;;;;;;;9.68;0.60;;;;;;;;;;5112339;28;20457;-82
2022/09/16 08:53:48;;;;;;;2.80;0.38;;;;;;;;;;5113601;28;20031;-82
2022/09/16 08:56:16;;;;;;;3.20;0.40;;;;;;;;;;5113747;28;20019;-82
2022/09/16 08:58:44;;;;;;;2.95;0.70;;;;;;;;;;5112429;28;20366;-82
2022/09/16 09:01:31;;;;;;;1.63;0.40;;;;;;;;;;5113591;28;20019;-82
2022/09/16 09:03:57;;;;;;;0.52;0.20;;;;;;;;;;5099193;28;20069;-81
2022/09/16 09:06:38;;;;;;;3.13;0.60;;;;;;;;;;5116608;27;20086;-81
2022/09/16 09:09:04;;;;;;;5.78;0.77;;;;;;;;;;5113794;27;20028;-82
2022/09/16 09:11:39;;;;;;;4.85;0.57;;;;;;;;;;5120616;27;20068;-81
2022/09/16 09:14:28;;;;;;;2.67;0.73;;;;;;;;;;5112223;27;20334;-81
2022/09/16 09:17:01;;;;;;;7.30;0.70;;;;;;;;;;5132982;27;20023;-83
2022/09/16 09:19:39;;;;;;;4.50;0.65;;;;;;;;;;5114424;27;20102;-81
2022/09/16 09:22:13;;;;;;;2.95;0.98;;;;;;;;;;5113171;28;20189;-81
2022/09/16 09:25:02;;;;;;;2.35;0.43;;;;;;;;;;5106378;28;20026;-81
2022/09/16 09:27:37;;;;;;;4.65;0.57;;;;;;;;;;5108793;28;20078;-81
2022/09/16 09:30:21;;;;;;;3.72;0.65;;;;;;;;;;5092863;28;20019;-81
2022/09/16 09:32:59;;;;;;;5.22;0.50;;;;;;;;;;5091242;28;20459;-82
2022/09/16 09:35:28;;;;;;;2.20;0.60;;;;;;;;;;5106492;28;20024;-81
2022/09/16 09:38:06;;;;;;;2.22;0.60;;;;;;;;;;5109660;28;20382;-81
2022/09/16 09:40:33;;;;;;;8.75;0.68;;;;;;;;;;5113945;28;20051;-81
2022/09/16 09:43:09;;;;;;;3.63;0.60;;;;;;;;;;5132239;28;20023;-81
2022/09/16 09:45:38;;;;;;;3.17;0.50;;;;;;;;;;5126407;28;20519;-82
2022/09/16 09:48:18;;;;;;;5.47;0.77;;;;;;;;;;5123437;28;20052;-81
2022/09/16 09:50:45;;;;;;;6.05;0.70;;;;;;;;;;5106668;28;20015;-81
2022/09/16 09:53:11;;;;;;;3.28;0.52;;;;;;;;;;5132108;28;20027;-81
2022/09/16 09:55:38;;;;;;;5.38;0.70;;;;;;;;;;5113620;28;20016;-81
2022/09/16 09:58:10;;;;;;;5.07;0.82;;;;;;;;;;5113044;28;20024;-81
2022/09/16 10:00:37;;;;;;;4.97;0.60;;;;;;;;;;5122700;28;20023;-81
2022/09/16 10:03:05;;;;;;;7.45;0.63;;;;;;;;;;5133193;28;20093;-78
2022/09/16 10:05:32;;;;;;;9.05;0.65;;;;;;;;;;5124982;28;20027;-80
2022/09/16 10:08:01;;;;;;;2.47;0.50;;;;;;;;;;5111164;28;20039;-81
2022/09/16 10:10:30;;;;;;;3.70;0.38;;;;;;;;;;5111507;28;20027;-81
2022/09/16 10:13:06;;;;;;;2.13;0.30;;;;;;;;;;5112589;28;20035;-82
2022/09/16 10:15:33;;;;;;;2.08;0.50;;;;;;;;;;5096463;28;20433;-79
2022/09/16 10:18:00;;;;;;;3.15;0.50;;;;;;;;;;5096964;27;20474;-80
2022/09/16 10:20:28;;;;;;;4.63;0.40;;;;;;;;;;5128106;27;20125;-79
2022/09/16 10:23:00;;;;;;;1.83;0.40;;;;;;;;;;5124510;27;20402;-79
2022/09/16 10:25:26;;;;;;;4.20;0.30;;;;;;;;;;5106394;27;20027;-80
2022/09/16 10:27:58;;;;;;;5.30;0.40;;;;;;;;;;5109862;27;20043;-80
2022/09/16 10:30:25;;;;;;;1.40;0.40;;;;;;;;;;5102989;27;20455;-80
2022/09/16 10:33:00;;;;;;;4.05;0.35;;;;;;;;;;5098863;28;20461;-80
2022/09/16 10:35:30;;;;;;;6.18;0.43;;;;;;;;;;5122336;27;20012;-79
2022/09/16 10:37:58;;;;;;;3.10;0.47;;;;;;;;;;5124136;27;20024;-80
2022/09/16 10:40:25;;;;;;;3.38;0.40;;;;;;;;;;5115698;27;20027;-79
2022/09/16 10:42:52;;;;;;;3.53;0.68;;;;;;;;;;5124153;27;20369;-79
2022/09/16 10:45:29;;;;;;;7.43;0.43;;;;;;;;;;5105809;27;20099;-79
2022/09/16 10:47:58;;;;;;;2.55;0.32;;;;;;;;;;5126689;27;20027;-79
2022/09/16 10:50:24;;;;;;;1.73;0.43;;;;;;;;;;5127787;27;20018;-79
2022/09/16 10:52:51;;;;;;;4.97;0.60;;;;;;;;;;5122750;27;20038;-79
2022/09/16 10:55:26;;;;;;;0.95;0.30;;;;;;;;;;5107438;27;20015;-79
2022/09/16 10:57:53;;;;;;;3.92;0.40;;;;;;;;;;5119937;27;20016;-79
2022/09/16 11:00:19;;;;;;;2.42;0.32;;;;;;;;;;5126787;27;20015;-79
2022/09/16 11:03:05;;;;;;;9.70;0.73;;;;;;;;;;5128732;27;20019;-79
2022/09/16 11:05:37;;;;;;;3.63;0.40;;;;;;;;;;5109506;27;20039;-83
2022/09/16 11:08:34;;;;;;;2.53;0.30;;;;;;;;;;5104969;27;20023;-81
2022/09/16 11:11:07;;;;;;;6.20;0.43;;;;;;;;;;5092998;27;20020;-81
2022/09/16 11:13:36;;;;;;;5.78;0.60;;;;;;;;;;5096932;28;20051;-82
2022/09/16 11:16:19;;;;;;;2.53;0.40;;;;;;;;;;5097494;28;20102;-82
2022/09/16 11:18:49;;;;;;;4.90;1.00;;;;;;;;;;5130155;27;20027;-81
2022/09/16 11:21:34;;;;;;;2.15;0.30;;;;;;;;;;5098935;27;20110;-80
2022/09/16 11:24:07;;;;;;;2.25;0.30;;;;;;;;;;5114757;28;20462;-80
2022/09/16 11:26:36;;;;;;;2.85;0.40;;;;;;;;;;5093111;28;20027;-79
2022/09/16 11:29:25;;;;;;;0.65;0.20;;;;;;;;;;5102551;28;20081;-79
2022/09/16 11:31:59;;;;;;;1.85;0.40;;;;;;;;;;5067693;28;20038;-80
2022/09/16 11:34:25;;;;;;;1.20;0.20;;;;;;;;;;5112992;28;20047;-81
2022/09/16 11:36:55;;;;;;;2.50;0.30;;;;;;;;;;5097816;28;20101;-80
2022/09/16 11:39:26;;;;;;;3.95;0.38;;;;;;;;;;5094122;28;20035;-81
2022/09/16 11:41:55;;;;;;;3.33;0.95;;;;;;;;;;5112961;27;20024;-81
2022/09/16 11:44:22;;;;;;;1.85;0.30;;;;;;;;;;5096093;28;20378;-81
2022/09/16 11:47:07;;;;;;;1.35;0.40;;;;;;;;;;5102299;28;20085;-81
2022/09/16 11:49:41;;;;;;;3.30;0.28;;;;;;;;;;5105282;28;20118;-81
2022/09/16 11:52:13;;;;;;;4.95;0.60;;;;;;;;;;5113358;28;20028;-81
2022/09/16 11:54:52;;;;;;;6.30;0.57;;;;;;;;;;5094574;28;20026;-80
2022/09/16 11:57:22;;;;;;;3.80;0.85;;;;;;;;;;5096352;28;20059;-80
2022/09/16 11:59:54;;;;;;;2.28;0.28;;;;;;;;;;5095205;28;20020;-80
2022/09/16 12:02:34;;;;;;;4.72;0.88;;;;;;;;;;5111281;28;20020;-80
2022/09/16 12:05:00;;;;;;;4.03;0.60;;;;;;;;;;5113658;28;20015;-80
2022/09/16 12:07:33;;;;;;;5.10;0.88;;;;;;;;;;5113861;28;20388;-80
2022/09/16 12:10:03;;;;;;;3.58;0.60;;;;;;;;;;5094022;28;20024;-81
2022/09/16 12:12:32;;;;;;;6.05;0.80;;;;;;;;;;5100899;27;20026;-80
2022/09/16 12:15:15;;;;;;;6.70;0.65;;;;;;;;;;5133259;27;20063;-81
2022/09/16 12:17:43;;;;;;;5.80;0.82;;;;;;;;;;5115277;27;20038;-81
2022/09/16 12:20:15;;;;;;;4.93;1.20;;;;;;;;;;5115486;27;20054;-80
2022/09/16 12:22:44;;;;;;;4.00;0.55;;;;;;;;;;5115978;27;20019;-80
2022/09/16 12:25:13;;;;;;;4.15;0.57;;;;;;;;;;5131425;27;20335;-80
2022/09/16 12:27:43;;;;;;;4.90;0.70;;;;;;;;;;5095267;28;20023;-81
2022/09/16 12:30:17;;;;;;;4.82;0.63;;;;;;;;;;5094956;28;20111;-80
2022/09/16 12:32:43;;;;;;;4.50;0.70;;;;;;;;;;5113086;28;20036;-80
2022/09/16 12:35:17;;;;;;;3.47;0.52;;;;;;;;;;5113171;28;20015;-81
2022/09/16 12:37:50;;;;;;;3.55;0.80;;;;;;;;;;5112684;28;20032;-80
2022/09/16 12:40:16;;;;;;;4.68;0.73;;;;;;;;;;5113771;28;20027;-80
2022/09/16 12:42:59;;;;;;;2.63;0.60;;;;;;;;;;5097247;28;20061;-80
2022/09/16 12:45:39;;;;;;;5.25;0.80;;;;;;;;;;5074923;28;20028;-80
2022/09/16 12:48:08;;;;;;;8.95;0.95;;;;;;;;;;5092757;28;20021;-81
2022/09/16 12:50:34;;;;;;;8.50;1.05;;;;;;;;;;5074392;28;20446;-81
2022/09/16 12:53:00;;;;;;;3.58;0.70;;;;;;;;;;5075195;28;20031;-81
2022/09/16 12:55:29;;;;;;;7.60;0.90;;;;;;;;;;5074523;28;20044;-81
2022/09/16 12:58:13;;;;;;;2.63;0.70;;;;;;;;;;5074769;28;20359;-81
2022/09/16 13:00:40;;;;;;;9.75;0.90;;;;;;;;;;5092857;28;20093;-80
2022/09/16 13:03:09;;;;;;;9.18;1.00;;;;;;;;;;5093015;28;20020;-81
2022/09/16 13:05:37;;;;;;;7.18;0.90;;;;;;;;;;5092759;28;20020;-81
2022/09/16 13:08:05;;;;;;;10.13;0.82;;;;;;;;;;5092659;28;20042;-81
2022/09/16 13:10:39;;;;;;;3.20;0.65;;;;;;;;;;5093024;28;20103;-82
2022/09/16 13:13:06;;;;;;;9.05;0.75;;;;;;;;;;5092889;28;20093;-81
2022/09/16 13:15:33;;;;;;;6.30;0.70;;;;;;;;;;5092729;28;20024;-81
2022/09/16 13:18:15;;;;;;;9.93;1.27;;;;;;;;;;5092834;28;20378;-81
2022/09/16 13:20:47;;;;;;;4.45;0.73;;;;;;;;;;5092395;28;20107;-81
2022/09/16 13:23:15;;;;;;;8.45;1.13;;;;;;;;;;5092988;28;20469;-81
2022/09/16 13:25:48;;;;;;;4.20;0.57;;;;;;;;;;5092726;28;20024;-81
2022/09/16 13:28:40;;;;;;;6.00;1.00;;;;;;;;;;5092499;28;20023;-81
2022/09/16 13:31:13;;;;;;;10.88;0.93;;;;;;;;;;5070729;28;20044;-81
2022/09/16 13:33:39;;;;;;;6.45;0.93;;;;;;;;;;5093037;28;20016;-81
2022/09/16 13:36:17;;;;;;;2.35;0.60;;;;;;;;;;5074426;28;20042;-81
2022/09/16 13:38:53;;;;;;;4.90;0.77;;;;;;;;;;5092302;28;20542;-81
2022/09/16 13:41:28;;;;;;;6.43;0.75;;;;;;;;;;5092456;28;20032;-81
2022/09/16 13:43:54;;;;;;;3.92;0.70;;;;;;;;;;5092457;28;20035;-81
2022/09/16 13:46:27;;;;;;;6.90;0.68;;;;;;;;;;5074215;28;20028;-81
2022/09/16 13:48:56;;;;;;;4.60;1.10;;;;;;;;;;5074090;28;20031;-81
2022/09/16 13:51:22;;;;;;;3.92;0.70;;;;;;;;;;5096739;28;20369;-81
2022/09/16 13:53:50;;;;;;;9.02;1.27;;;;;;;;;;5096623;28;20434;-81
2022/09/16 13:56:28;;;;;;;3.15;0.60;;;;;;;;;;5078153;28;20016;-81
2022/09/16 13:59:12;;;;;;;6.03;0.85;;;;;;;;;;5078301;28;20035;-81
2022/09/16 14:01:48;;;;;;;8.57;1.20;;;;;;;;;;5096441;28;20028;-81
2022/09/16 14:04:23;;;;;;;4.38;0.88;;;;;;;;;;5077913;28;20036;-81
2022/09/16 14:06:49;;;;;;;8.90;1.10;;;;;;;;;;5104210;28;20028;-82
2022/09/16 14:09:15;;;;;;;7.72;1.30;;;;;;;;;;5095967;28;20355;-81
2022/09/16 14:11:47;;;;;;;12.57;1.00;;;;;;;;;;5112459;28;20031;-81
2022/09/16 14:14:13;;;;;;;;;;;;;;;;;;5116355;28;20043;-81
2022/09/16 14:16:41;;;;;;;6.38;0.80;;;;;;;;;;5116224;28;20191;-81
2022/09/16 14:19:23;;;;;;;7.95;1.13;;;;;;;;;;5116205;28;20039;-81
2022/09/16 14:22:13;;;;;;;10.55;0.90;;;;;;;;;;5098167;28;20046;-82
2022/09/16 14:24:40;;;;;;;5.05;0.88;;;;;;;;;;5109808;28;20032;-81
2022/09/16 14:27:17;;;;;;;6.20;0.90;;;;;;;;;;5116009;28;20024;-81
2022/09/16 14:29:54;;;;;;;6.55;0.98;;;;;;;;;;5097733;28;20089;-82
2022/09/16 14:32:20;;;;;;;3.35;0.88;;;;;;;;;;5116090;28;20696;-82
2022/09/16 14:34:46;;;;;;;9.40;1.17;;;;;;;;;;5083890;28;20048;-82
2022/09/16 14:37:16;;;;;;;6.75;1.08;;;;;;;;;;5097356;28;20027;-81
2022/09/16 14:39:42;;;;;;;4.65;0.80;;;;;;;;;;5116024;28;20027;-81
2022/09/16 14:42:14;;;;;;;3.83;0.45;;;;;;;;;;5104158;28;20058;-81
2022/09/16 14:44:54;;;;;;;3.63;1.20;;;;;;;;;;5106666;28;20494;-81
2022/09/16 14:47:27;;;;;;;4.55;0.70;;;;;;;;;;5095164;28;20103;-80
2022/09/16 14:49:56;;;;;;;3.00;0.50;;;;;;;;;;5091814;27;20077;-81
2022/09/16 14:52:23;;;;;;;3.53;0.80;;;;;;;;;;5137216;27;20050;-81
2022/09/16 14:54:50;;;;;;;8.40;0.50;;;;;;;;;;5105527;28;20041;-81
2022/09/16 14:57:24;;;;;;;3.83;0.60;;;;;;;;;;5098956;27;20019;-81
2022/09/16 14:59:51;;;;;;;9.10;1.00;;;;;;;;;;5131230;27;20494;-81
2022/09/16 15:02:20;;;;;;;5.10;0.70;;;;;;;;;;5135680;27;20031;-80